createdAt,value
2022-10-03T00:01:23.980Z,4.50
2022-10-03T00:04:43.410Z,4.50
2022-10-03T00:08:01.858Z,4.50
2022-10-03T00:11:23.614Z,4.50
2022-10-03T00:14:32.747Z,4.50
2022-10-03T00:18:02.720Z,4.50
2022-10-03T00:21:15.736Z,4.40
2022-10-03T00:24:30.040Z,4.50
2022-10-03T00:27:50.129Z,4.40
2022-10-03T00:31:19.614Z,4.40
2022-10-03T00:34:39.606Z,4.40
2022-10-03T00:37:44.901Z,4.30
2022-10-03T00:41:13.404Z,4.30
2022-10-03T00:44:44.231Z,4.20
2022-10-03T00:48:06.839Z,4.20
2022-10-03T00:51:30.482Z,4.10
2022-10-03T00:54:53.270Z,4.10
2022-10-03T00:58:14.951Z,4.10
2022-10-03T01:01:39.226Z,4.10
2022-10-03T01:05:00.987Z,4.20
2022-10-03T01:08:21.373Z,4.20
2022-10-03T01:11:39.385Z,4.30
2022-10-03T01:15:02.660Z,4.30
2022-10-03T01:18:17.222Z,4.40
2022-10-03T01:21:36.239Z,4.50
2022-10-03T01:24:55.017Z,4.60
2022-10-03T01:28:21.776Z,4.70
2022-10-03T01:31:40.916Z,4.70
2022-10-03T01:35:02.777Z,4.80
2022-10-03T01:38:30.853Z,4.90
2022-10-03T01:41:49.137Z,4.90
2022-10-03T01:45:11.774Z,5.10
2022-10-03T01:48:45.073Z,5.20
2022-10-03T01:51:55.686Z,5.30
2022-10-03T01:55:11.102Z,5.50
2022-10-03T01:58:19.860Z,5.70
2022-10-03T02:01:46.952Z,5.80
2022-10-03T02:04:58.278Z,6.10
2022-10-03T02:08:07.093Z,6.10
2022-10-03T02:11:08.932Z,6.20
2022-10-03T02:14:23.893Z,6.40
2022-10-03T02:17:44.605Z,6.50
2022-10-03T02:20:54.690Z,6.60
2022-10-03T02:24:28.725Z,6.80
2022-10-03T02:27:56.688Z,6.90
2022-10-03T02:31:23.259Z,7.20
2022-10-03T02:34:41.948Z,7.30
2022-10-03T02:38:06.137Z,7.30
2022-10-03T02:41:33.101Z,7.50
2022-10-03T02:45:07.239Z,7.60
2022-10-03T02:48:32.932Z,7.70
2022-10-03T02:52:11.292Z,7.70
2022-10-03T02:55:44.939Z,7.90
2022-10-03T02:59:11.410Z,7.90
2022-10-03T03:02:40.282Z,8.10
2022-10-03T03:06:00.330Z,8.20
2022-10-03T03:09:33.666Z,8.20
2022-10-03T03:13:01.166Z,8.30
2022-10-03T03:16:26.261Z,8.40
2022-10-03T03:19:56.203Z,8.50
2022-10-03T03:23:11.384Z,8.70
2022-10-03T03:26:29.214Z,8.70
2022-10-03T03:29:57.171Z,8.70
2022-10-03T03:33:22.515Z,8.80
2022-10-03T03:36:39.455Z,9.00
2022-10-03T03:40:04.747Z,9.00
2022-10-03T03:43:29.108Z,9.10
2022-10-03T03:46:46.402Z,9.30
2022-10-03T03:50:15.234Z,9.30
2022-10-03T03:53:33.985Z,9.40
2022-10-03T03:56:47.770Z,8.30
2022-10-03T04:00:11.471Z,9.60
2022-10-03T04:03:28.987Z,9.80
2022-10-03T04:06:49.832Z,9.90
2022-10-03T04:10:07.608Z,10.00
2022-10-03T04:13:24.299Z,10.10
2022-10-03T04:16:53.917Z,10.10
2022-10-03T04:20:18.600Z,10.30
2022-10-03T04:23:35.242Z,10.40
2022-10-03T04:26:52.511Z,10.50
2022-10-03T04:30:03.397Z,10.60
2022-10-03T04:33:33.947Z,10.70
2022-10-03T04:37:04.095Z,10.80
2022-10-03T04:40:23.590Z,10.90
2022-10-03T04:43:45.940Z,11.10
2022-10-03T04:47:05.671Z,11.10
2022-10-03T04:50:24.571Z,11.20
2022-10-03T04:53:46.202Z,11.30
2022-10-03T04:57:00.946Z,11.40
2022-10-03T05:00:16.691Z,11.50
2022-10-03T05:03:42.100Z,11.70
2022-10-03T05:07:09.438Z,11.70
2022-10-03T05:10:29.042Z,11.80
2022-10-03T05:13:50.507Z,11.90
2022-10-03T05:17:05.534Z,12.00
2022-10-03T05:20:21.836Z,12.10
2022-10-03T05:23:31.719Z,12.20
2022-10-03T05:26:56.142Z,12.30
2022-10-03T05:30:16.192Z,12.50
2022-10-03T05:33:38.748Z,12.50
2022-10-03T05:37:04.665Z,12.70
2022-10-03T05:40:24.599Z,12.70
2022-10-03T05:43:45.271Z,12.80
2022-10-03T05:47:06.344Z,12.90
2022-10-03T05:50:29.290Z,13.10
2022-10-03T05:53:55.608Z,13.10
2022-10-03T05:57:18.165Z,13.30
2022-10-03T06:00:40.629Z,13.30
2022-10-03T06:04:11.346Z,13.40
2022-10-03T06:07:40.822Z,13.50
2022-10-03T06:11:01.677Z,13.60
2022-10-03T06:14:32.026Z,15.00
2022-10-03T06:17:57.039Z,13.80
2022-10-03T06:21:21.638Z,13.90
2022-10-03T06:24:49.837Z,14.00
2022-10-03T06:28:19.532Z,14.10
2022-10-03T06:31:52.181Z,14.20
2022-10-03T06:35:29.529Z,14.30
2022-10-03T06:39:05.669Z,14.30
2022-10-03T06:42:30.417Z,14.40
2022-10-03T06:46:07.964Z,14.60
2022-10-03T06:49:37.694Z,14.70
2022-10-03T06:52:54.010Z,14.90
2022-10-03T06:56:23.922Z,15.10
2022-10-03T06:59:52.922Z,15.20
2022-10-03T07:03:19.759Z,15.30
2022-10-03T07:06:49.185Z,15.40
2022-10-03T07:10:18.909Z,15.40
2022-10-03T07:13:51.229Z,15.60
2022-10-03T07:17:09.285Z,15.60
2022-10-03T07:20:42.147Z,15.80
2022-10-03T07:24:10.984Z,15.80
2022-10-03T07:27:39.966Z,15.90
2022-10-03T07:31:02.245Z,15.90
2022-10-03T07:37:59.819Z,16.10
2022-10-03T07:41:33.024Z,16.20
2022-10-03T07:45:03.452Z,16.20
2022-10-03T07:48:25.612Z,16.30
2022-10-03T07:51:44.065Z,16.40
2022-10-03T07:55:11.926Z,16.50
2022-10-03T07:58:46.041Z,16.80
2022-10-03T08:02:09.577Z,17.00
2022-10-03T08:05:39.395Z,17.60
2022-10-03T08:09:08.256Z,17.70
2022-10-03T08:12:41.112Z,18.00
2022-10-03T08:16:11.076Z,18.40
2022-10-03T08:19:32.833Z,18.60
2022-10-03T08:22:46.461Z,18.80
2022-10-03T08:26:16.005Z,18.90
2022-10-03T08:29:35.666Z,18.90
2022-10-03T08:32:57.478Z,18.70
2022-10-03T08:36:17.846Z,18.60
2022-10-03T08:39:47.520Z,18.70
2022-10-03T08:43:15.571Z,18.70
2022-10-03T08:46:45.327Z,18.60
2022-10-03T08:50:18.807Z,18.70
2022-10-03T08:53:48.836Z,18.60
2022-10-03T08:57:07.989Z,18.60
2022-10-03T09:00:17.060Z,18.40
2022-10-03T09:03:50.636Z,18.20
2022-10-03T09:07:18.884Z,18.00
2022-10-03T09:10:37.769Z,17.70
2022-10-03T09:14:11.459Z,17.50
2022-10-03T09:17:39.128Z,17.30
2022-10-03T09:21:09.358Z,17.00
2022-10-03T09:24:31.334Z,17.00
2022-10-03T09:27:55.828Z,16.90
2022-10-03T09:31:29.392Z,16.80
2022-10-03T09:34:56.252Z,16.70
2022-10-03T09:38:34.291Z,16.70
2022-10-03T09:41:53.825Z,16.70
2022-10-03T09:45:15.165Z,16.80
2022-10-03T09:48:33.583Z,16.80
2022-10-03T09:51:58.345Z,16.80
2022-10-03T09:55:27.946Z,16.80
2022-10-03T09:58:57.166Z,16.80
2022-10-03T10:02:23.683Z,16.80
2022-10-03T10:05:48.286Z,16.80
2022-10-03T10:09:23.733Z,16.80
2022-10-03T10:12:51.495Z,16.70
2022-10-03T10:16:15.772Z,16.70
2022-10-03T10:19:41.636Z,16.70
2022-10-03T10:23:10.911Z,16.80
2022-10-03T10:26:35.622Z,16.70
2022-10-03T10:29:51.127Z,16.60
2022-10-03T10:33:20.032Z,16.60
2022-10-03T10:36:54.265Z,16.50
2022-10-03T10:40:20.396Z,16.40
2022-10-03T10:43:50.486Z,16.40
2022-10-03T10:47:24.048Z,16.20
2022-10-03T10:50:53.010Z,16.20
2022-10-03T10:54:23.317Z,16.10
2022-10-03T10:57:57.893Z,16.00
2022-10-03T11:01:26.794Z,16.00
2022-10-03T11:04:56.432Z,15.80
2022-10-03T11:08:29.715Z,15.80
2022-10-03T11:12:00.138Z,15.70
2022-10-03T11:15:36.855Z,15.60
2022-10-03T11:18:52.275Z,15.50
2022-10-03T11:22:16.413Z,15.40
2022-10-03T11:25:54.930Z,15.30
2022-10-03T11:29:27.851Z,15.20
2022-10-03T11:33:06.375Z,15.00
2022-10-03T11:36:28.338Z,14.90
2022-10-03T11:39:55.836Z,14.80
2022-10-03T11:43:21.099Z,14.80
2022-10-03T11:46:41.499Z,14.70
2022-10-03T11:50:15.142Z,14.70
2022-10-03T11:53:34.348Z,14.60
2022-10-03T11:56:55.121Z,14.60
2022-10-03T12:00:06.186Z,14.50
2022-10-03T12:03:27.431Z,14.50
2022-10-03T12:07:15.880Z,14.40
2022-10-03T12:10:36.082Z,14.40
2022-10-03T12:14:08.643Z,14.40
2022-10-03T12:17:18.488Z,14.30
2022-10-03T12:20:32.409Z,14.20
2022-10-03T12:23:54.647Z,14.20
2022-10-03T12:27:16.185Z,14.10
2022-10-03T12:30:18.692Z,14.00
2022-10-03T12:33:40.053Z,13.90
2022-10-03T12:37:04.337Z,13.80
2022-10-03T12:40:14.066Z,13.70
2022-10-03T12:43:34.768Z,13.70
2022-10-03T12:47:02.328Z,13.70
2022-10-03T12:50:32.074Z,13.60
2022-10-03T12:54:01.248Z,13.60
2022-10-03T12:57:31.188Z,13.50
2022-10-03T13:00:47.989Z,13.50
2022-10-03T13:04:13.772Z,13.40
2022-10-03T13:07:34.348Z,13.40
2022-10-03T13:10:42.942Z,13.30
2022-10-03T13:14:00.557Z,13.30
2022-10-03T13:17:15.865Z,13.30
2022-10-03T13:20:29.644Z,13.20
2022-10-03T13:23:50.586Z,13.20
2022-10-03T13:27:10.048Z,13.20
2022-10-03T13:30:35.268Z,13.10
2022-10-03T13:33:45.331Z,13.00
2022-10-03T13:36:54.022Z,13.00
2022-10-03T13:39:55.860Z,12.90
2022-10-03T13:42:54.957Z,12.90
2022-10-03T13:45:57.484Z,12.80
2022-10-03T13:49:02.460Z,12.80
2022-10-03T13:52:16.180Z,12.80
2022-10-03T13:55:32.193Z,12.80
2022-10-03T13:58:54.503Z,12.70
2022-10-03T14:02:13.987Z,12.70
2022-10-03T14:05:43.867Z,12.70
2022-10-03T14:09:12.599Z,12.60
2022-10-03T14:12:54.942Z,12.60
2022-10-03T14:16:11.297Z,12.60
2022-10-03T14:19:31.585Z,12.60
2022-10-03T14:22:50.287Z,12.60
2022-10-03T14:26:01.353Z,12.50
2022-10-03T14:29:16.803Z,12.60
2022-10-03T14:32:46.690Z,12.60
2022-10-03T14:36:15.563Z,12.60
2022-10-03T14:39:34.003Z,12.50
2022-10-03T14:42:44.745Z,12.50
2022-10-03T14:45:50.291Z,12.40
2022-10-03T14:48:52.832Z,12.40
2022-10-03T14:52:01.114Z,12.30
2022-10-03T14:55:03.602Z,12.30
2022-10-03T14:58:11.419Z,12.10
2022-10-03T15:01:23.208Z,12.10
2022-10-03T15:04:40.472Z,12.00
2022-10-03T15:07:42.075Z,12.00
2022-10-03T15:10:41.641Z,11.90
2022-10-03T15:13:53.661Z,12.00
2022-10-03T15:16:56.183Z,12.10
2022-10-03T15:19:57.603Z,12.00
2022-10-03T15:23:01.682Z,12.00
2022-10-03T15:26:00.613Z,12.10
2022-10-03T15:29:01.677Z,12.00
2022-10-03T15:32:00.487Z,11.90
2022-10-03T15:35:02.678Z,11.80
2022-10-03T15:38:12.038Z,11.70
2022-10-03T15:41:17.000Z,11.70
2022-10-03T15:44:22.509Z,11.60
2022-10-03T15:47:25.098Z,11.60
2022-10-03T15:50:29.890Z,11.60
2022-10-03T15:53:37.149Z,11.60
2022-10-03T15:56:43.254Z,11.70
2022-10-03T15:59:47.625Z,11.60
2022-10-03T16:02:53.227Z,11.60
2022-10-03T16:06:16.858Z,11.60
2022-10-03T16:09:50.308Z,11.60
2022-10-03T16:13:09.025Z,11.60
2022-10-03T16:16:20.027Z,11.60
2022-10-03T16:19:37.469Z,11.60
2022-10-03T16:22:45.258Z,11.60
2022-10-03T16:25:51.990Z,11.60
2022-10-03T16:29:02.151Z,11.60
2022-10-03T16:32:14.960Z,11.60
2022-10-03T16:35:32.551Z,11.60
2022-10-03T16:38:43.106Z,11.60
2022-10-03T16:41:44.523Z,11.70
2022-10-03T16:44:55.876Z,11.70
2022-10-03T16:48:12.212Z,11.80
2022-10-03T16:51:21.153Z,11.80
2022-10-03T16:54:20.808Z,11.70
2022-10-03T16:57:28.057Z,11.60
2022-10-03T17:00:35.673Z,11.60
2022-10-03T17:03:47.632Z,11.50
2022-10-03T17:06:49.291Z,11.40
2022-10-03T17:09:51.046Z,11.30
2022-10-03T17:12:53.614Z,11.20
2022-10-03T17:16:01.101Z,11.10
2022-10-03T17:19:18.804Z,11.10
2022-10-03T17:22:24.381Z,11.00
2022-10-03T17:25:53.198Z,11.00
2022-10-03T17:28:59.628Z,10.90
2022-10-03T17:32:28.908Z,10.90
2022-10-03T17:35:44.346Z,10.80
2022-10-03T17:39:03.130Z,10.80
2022-10-03T17:42:19.316Z,10.80
2022-10-03T17:45:40.491Z,10.70
2022-10-03T17:48:46.871Z,10.70
2022-10-03T17:51:48.625Z,10.70
2022-10-03T17:54:54.418Z,10.60
2022-10-03T17:58:00.766Z,10.60
2022-10-03T18:01:11.594Z,10.70
2022-10-03T18:04:19.250Z,10.70
2022-10-03T18:07:23.193Z,10.70
2022-10-03T18:10:26.397Z,10.80
2022-10-03T18:13:35.643Z,10.80
2022-10-03T18:16:37.665Z,10.90
2022-10-03T18:19:54.951Z,10.90
2022-10-03T18:23:01.790Z,11.00
2022-10-03T18:26:19.504Z,11.10
2022-10-03T18:29:32.980Z,11.10
2022-10-03T18:32:36.295Z,11.10
2022-10-03T18:35:36.660Z,11.10
2022-10-03T18:38:37.156Z,11.20
2022-10-03T18:41:35.787Z,11.20
2022-10-03T18:44:36.838Z,11.20
2022-10-03T18:47:42.091Z,11.20
2022-10-03T18:50:54.095Z,11.30
2022-10-03T18:53:59.765Z,11.40
2022-10-03T18:57:09.574Z,11.40
2022-10-03T19:00:21.534Z,11.40
2022-10-03T19:03:28.206Z,11.40
2022-10-03T19:06:32.774Z,11.50
2022-10-03T19:09:39.944Z,11.60
2022-10-03T19:12:42.859Z,11.60
2022-10-03T19:16:06.625Z,11.70
2022-10-03T19:19:24.736Z,11.70
2022-10-03T19:22:33.849Z,11.70
2022-10-03T19:25:34.060Z,11.70
2022-10-03T19:28:39.888Z,11.70
2022-10-03T19:31:44.615Z,11.70
2022-10-03T19:34:47.272Z,11.80
2022-10-03T19:37:50.286Z,11.90
2022-10-03T19:41:12.834Z,11.90
2022-10-03T19:44:17.939Z,11.90
2022-10-03T19:47:25.605Z,11.90
2022-10-03T19:50:36.527Z,11.90
2022-10-03T19:53:35.445Z,12.00
2022-10-03T19:56:36.294Z,12.00
2022-10-03T19:59:47.655Z,12.10
2022-10-03T20:02:52.149Z,12.10
2022-10-03T20:06:02.081Z,12.20
2022-10-03T20:09:21.194Z,12.20
2022-10-03T20:12:20.192Z,12.20
2022-10-03T20:15:23.860Z,12.10
2022-10-03T20:18:30.882Z,12.10
2022-10-03T20:21:30.703Z,12.10
2022-10-03T20:24:41.711Z,12.10
2022-10-03T20:27:45.558Z,12.20
2022-10-03T20:30:49.151Z,12.20
2022-10-03T20:33:47.867Z,12.30
2022-10-03T20:36:54.019Z,12.30
2022-10-03T20:39:56.854Z,12.30
2022-10-03T20:43:12.194Z,12.40
2022-10-03T20:46:30.822Z,12.40
2022-10-03T20:49:38.140Z,12.50
2022-10-03T20:52:36.406Z,12.50
2022-10-03T20:55:47.562Z,12.50
2022-10-03T20:58:52.547Z,12.60
2022-10-03T21:02:01.813Z,12.60
2022-10-03T21:05:05.839Z,12.60
2022-10-03T21:08:16.113Z,12.70
2022-10-03T21:11:27.631Z,12.70
2022-10-03T21:14:30.802Z,12.60
2022-10-03T21:17:30.448Z,12.60
2022-10-03T21:20:38.473Z,12.60
2022-10-03T21:23:59.371Z,12.70
2022-10-03T21:27:02.586Z,12.60
2022-10-03T21:30:18.133Z,12.60
2022-10-03T21:33:25.075Z,12.60
2022-10-03T21:36:48.782Z,12.60
2022-10-03T21:40:18.443Z,12.60
2022-10-03T21:43:43.105Z,12.50
2022-10-03T21:46:55.544Z,12.50
2022-10-03T21:50:01.750Z,12.50
2022-10-03T21:53:19.543Z,12.50
2022-10-03T21:56:41.104Z,12.50
2022-10-03T22:00:03.127Z,12.40
2022-10-03T22:03:15.872Z,12.30
2022-10-03T22:06:26.168Z,12.20
2022-10-03T22:09:24.469Z,12.10
2022-10-03T22:12:27.306Z,12.00
2022-10-03T22:15:51.092Z,12.00
2022-10-03T22:19:10.397Z,11.90
2022-10-03T22:22:31.388Z,11.90
2022-10-03T22:25:46.148Z,11.90
2022-10-03T22:29:16.687Z,11.90
2022-10-03T22:32:27.903Z,11.80
2022-10-03T22:35:48.366Z,11.80
2022-10-03T22:38:50.535Z,11.70
2022-10-03T22:41:53.865Z,11.70
2022-10-03T22:44:55.515Z,11.70
2022-10-03T22:47:58.895Z,11.60
2022-10-03T22:50:58.696Z,11.60
2022-10-03T22:54:03.513Z,11.50
2022-10-03T22:57:09.540Z,11.50
2022-10-03T23:00:12.822Z,11.40
2022-10-03T23:03:19.994Z,11.40
2022-10-03T23:06:43.820Z,11.40
2022-10-03T23:09:56.473Z,11.40
2022-10-03T23:13:05.034Z,11.40
2022-10-03T23:16:19.460Z,11.40
2022-10-03T23:19:41.451Z,11.50
2022-10-03T23:22:44.608Z,11.50
2022-10-03T23:26:06.282Z,11.50
2022-10-03T23:29:11.671Z,11.50
2022-10-03T23:32:11.408Z,11.50
2022-10-03T23:35:17.810Z,11.50
2022-10-03T23:38:51.078Z,11.50
2022-10-03T23:41:59.331Z,11.50
2022-10-03T23:44:58.986Z,11.50
2022-10-03T23:48:04.485Z,11.50
2022-10-03T23:51:07.544Z,11.50
2022-10-03T23:54:11.880Z,11.50
2022-10-03T23:57:10.375Z,11.60
